Springfield, Illinois
Current Conditions -  °F | °C
As of 10:52 PM on Wednesday 22 Oct 2014 (Local Time) from KSPI Reporting Station
Clear Clear  
Wind Chill:   Ceiling: Unl
Heat Index:   Visibility: 10mi
Dew Point:   Wind: 3mph
Humidity: 89%   Direction: 110°ESE
Pressure: 30.26"   Gusts: NA
Location:  39.8°N, 89.64°W
Report Text: KSPI 230352Z AUTO 11003KT 10SM CLR 04/02 A3026 RMK AO2 SLP247 T00390022
Loading
Personal Weather Stations






























Interactive Weather Map New forecast layout! Learn more

10-Day Weather Forecast

Advertisements
Track Severe Weather on mobile